Terminal Aerodrome Forecast
Issued by NWS Atlanta, GA

Home | Current Version | Previous Version | Text Only | Print | Product List | Glossary On
Versions: 1 2 3 4 5 6 7 8 9 10 11 12 13 14 15 16 17 18 19 20 21
000
FTUS42 KFFC 241728
TAFMCN
TAF
KMCN 241728Z 2418/2518 16008KT P6SM SCT045
     FM250000 18004KT P6SM SCT060
     FM251000 22003KT 5SM BR BKN015
     FM251400 24007KT P6SM BKN025
     FM251600 26009G16KT P6SM SCT025 BKN060=

USA.gov is the U.S. government's official web portal to all federal, state and local government web resources and services.